sensor_id;sensor_type;location;lat;lon;timestamp;P1;durP1;ratioP1;P2;durP2;ratioP2
50531;SDS011;36483;37.396;-122.212;2022-08-11T00:01:46;3.78;;;1.00;;
50531;SDS011;36483;37.396;-122.212;2022-08-11T00:04:15;2.03;;;0.90;;
50531;SDS011;36483;37.396;-122.212;2022-08-11T00:06:42;2.30;;;1.08;;
50531;SDS011;36483;37.396;-122.212;2022-08-11T00:09:12;2.90;;;0.90;;
50531;SDS011;36483;37.396;-122.212;2022-08-11T00:16:55;3.55;;;1.10;;
50531;SDS011;36483;37.396;-122.212;2022-08-11T00:19:27;4.20;;;1.17;;
50531;SDS011;36483;37.396;-122.212;2022-08-11T00:22:03;3.17;;;0.90;;
50531;SDS011;36483;37.396;-122.212;2022-08-11T00:24:34;2.13;;;0.98;;
50531;SDS011;36483;37.396;-122.212;2022-08-11T00:27:03;1.98;;;0.80;;
50531;SDS011;36483;37.396;-122.212;2022-08-11T00:29:30;3.03;;;0.85;;
50531;SDS011;36483;37.396;-122.212;2022-08-11T00:31:57;2.25;;;0.88;;
50531;SDS011;36483;37.396;-122.212;2022-08-11T00:34:31;2.60;;;0.90;;
50531;SDS011;36483;37.396;-122.212;2022-08-11T00:37:03;3.30;;;0.80;;
50531;SDS011;36483;37.396;-122.212;2022-08-11T00:39:33;2.85;;;1.40;;
50531;SDS011;36483;37.396;-122.212;2022-08-11T01:38:26;2.00;;;0.90;;
50531;SDS011;36483;37.396;-122.212;2022-08-11T01:59:17;2.40;;;0.77;;
50531;SDS011;36483;37.396;-122.212;2022-08-11T02:05:35;2.30;;;0.90;;
50531;SDS011;36483;37.396;-122.212;2022-08-11T02:28:02;2.75;;;0.80;;
50531;SDS011;36483;37.396;-122.212;2022-08-11T02:30:40;2.53;;;0.95;;
50531;SDS011;36483;37.396;-122.212;2022-08-11T02:33:37;4.38;;;0.95;;
50531;SDS011;36483;37.396;-122.212;2022-08-11T02:36:11;3.97;;;0.90;;
50531;SDS011;36483;37.396;-122.212;2022-08-11T02:38:48;3.28;;;0.80;;
50531;SDS011;36483;37.396;-122.212;2022-08-11T02:46:55;3.30;;;0.95;;
50531;SDS011;36483;37.396;-122.212;2022-08-11T02:49:35;2.60;;;0.95;;
50531;SDS011;36483;37.396;-122.212;2022-08-11T02:52:31;2.25;;;0.80;;
50531;SDS011;36483;37.396;-122.212;2022-08-11T02:58:00;3.22;;;1.10;;
50531;SDS011;36483;37.396;-122.212;2022-08-11T03:00:46;4.10;;;1.00;;
50531;SDS011;36483;37.396;-122.212;2022-08-11T03:05:53;3.35;;;1.00;;
50531;SDS011;36483;37.396;-122.212;2022-08-11T03:09:11;2.90;;;0.95;;
50531;SDS011;36483;37.396;-122.212;2022-08-11T03:14:51;3.35;;;1.00;;
50531;SDS011;36483;37.396;-122.212;2022-08-11T03:21:05;3.75;;;1.10;;
50531;SDS011;36483;37.396;-122.212;2022-08-11T03:28:58;3.55;;;1.20;;
50531;SDS011;36483;37.396;-122.212;2022-08-11T03:31:43;3.55;;;1.33;;
50531;SDS011;36483;37.396;-122.212;2022-08-11T03:56:02;2.47;;;1.00;;
50531;SDS011;36483;37.396;-122.212;2022-08-11T03:58:41;3.92;;;0.93;;
50531;SDS011;36483;37.396;-122.212;2022-08-11T04:06:55;4.78;;;1.08;;
50531;SDS011;36483;37.396;-122.212;2022-08-11T04:24:11;3.05;;;1.10;;
50531;SDS011;36483;37.396;-122.212;2022-08-11T04:26:54;2.08;;;1.10;;
50531;SDS011;36483;37.396;-122.212;2022-08-11T04:38:34;2.65;;;1.00;;
50531;SDS011;36483;37.396;-122.212;2022-08-11T04:47:32;2.65;;;1.20;;
50531;SDS011;36483;37.396;-122.212;2022-08-11T04:56:33;2.40;;;1.02;;
50531;SDS011;36483;37.396;-122.212;2022-08-11T04:59:26;4.00;;;1.02;;
50531;SDS011;36483;37.396;-122.212;2022-08-11T05:13:36;1.65;;;0.75;;
50531;SDS011;36483;37.396;-122.212;2022-08-11T05:16:25;2.00;;;1.00;;
50531;SDS011;36483;37.396;-122.212;2022-08-11T05:19:18;1.95;;;1.00;;
50531;SDS011;36483;37.396;-122.212;2022-08-11T05:22:05;2.35;;;1.10;;
50531;SDS011;36483;37.396;-122.212;2022-08-11T05:25:11;2.50;;;0.95;;
50531;SDS011;36483;37.396;-122.212;2022-08-11T05:28:02;2.70;;;1.00;;
50531;SDS011;36483;37.396;-122.212;2022-08-11T05:30:56;2.58;;;0.98;;
50531;SDS011;36483;37.396;-122.212;2022-08-11T05:40:06;2.72;;;1.20;;
50531;SDS011;36483;37.396;-122.212;2022-08-11T05:42:55;3.83;;;1.10;;
50531;SDS011;36483;37.396;-122.212;2022-08-11T05:45:41;2.72;;;1.08;;
50531;SDS011;36483;37.396;-122.212;2022-08-11T05:48:33;3.28;;;1.10;;
50531;SDS011;36483;37.396;-122.212;2022-08-11T05:51:18;2.63;;;1.00;;
50531;SDS011;36483;37.396;-122.212;2022-08-11T05:54:03;6.07;;;1.00;;
50531;SDS011;36483;37.396;-122.212;2022-08-11T05:56:53;3.10;;;1.10;;
50531;SDS011;36483;37.396;-122.212;2022-08-11T05:59:22;2.50;;;1.07;;
50531;SDS011;36483;37.396;-122.212;2022-08-11T06:01:49;2.45;;;1.15;;
50531;SDS011;36483;37.396;-122.212;2022-08-11T06:04:22;1.55;;;0.90;;
50531;SDS011;36483;37.396;-122.212;2022-08-11T06:06:55;3.17;;;1.10;;
50531;SDS011;36483;37.396;-122.212;2022-08-11T06:09:25;3.95;;;1.40;;
50531;SDS011;36483;37.396;-122.212;2022-08-11T06:11:53;2.88;;;1.30;;
50531;SDS011;36483;37.396;-122.212;2022-08-11T06:14:21;3.75;;;1.20;;
50531;SDS011;36483;37.396;-122.212;2022-08-11T06:16:49;2.75;;;1.05;;
50531;SDS011;36483;37.396;-122.212;2022-08-11T06:19:15;3.65;;;1.33;;
50531;SDS011;36483;37.396;-122.212;2022-08-11T06:21:43;3.50;;;1.10;;
50531;SDS011;36483;37.396;-122.212;2022-08-11T06:24:11;3.05;;;1.40;;
50531;SDS011;36483;37.396;-122.212;2022-08-11T06:26:46;2.55;;;1.25;;
50531;SDS011;36483;37.396;-122.212;2022-08-11T06:29:13;3.92;;;1.20;;
50531;SDS011;36483;37.396;-122.212;2022-08-11T06:32:01;2.28;;;1.08;;
50531;SDS011;36483;37.396;-122.212;2022-08-11T06:34:30;2.08;;;1.13;;
50531;SDS011;36483;37.396;-122.212;2022-08-11T06:37:06;3.08;;;1.00;;
50531;SDS011;36483;37.396;-122.212;2022-08-11T06:39:57;5.38;;;1.17;;
50531;SDS011;36483;37.396;-122.212;2022-08-11T06:42:35;5.80;;;1.50;;
50531;SDS011;36483;37.396;-122.212;2022-08-11T06:48:05;2.55;;;1.20;;
50531;SDS011;36483;37.396;-122.212;2022-08-11T06:50:35;2.63;;;1.30;;
50531;SDS011;36483;37.396;-122.212;2022-08-11T06:53:19;5.00;;;1.38;;
50531;SDS011;36483;37.396;-122.212;2022-08-11T06:55:47;2.92;;;1.30;;
50531;SDS011;36483;37.396;-122.212;2022-08-11T06:58:36;4.30;;;1.52;;
50531;SDS011;36483;37.396;-122.212;2022-08-11T07:01:27;2.97;;;1.30;;
50531;SDS011;36483;37.396;-122.212;2022-08-11T07:04:06;2.90;;;1.40;;
50531;SDS011;36483;37.396;-122.212;2022-08-11T07:06:44;3.63;;;1.42;;
50531;SDS011;36483;37.396;-122.212;2022-08-11T07:10:32;5.70;;;1.40;;
50531;SDS011;36483;37.396;-122.212;2022-08-11T07:13:24;4.03;;;1.38;;
50531;SDS011;36483;37.396;-122.212;2022-08-11T07:16:10;2.17;;;1.13;;
50531;SDS011;36483;37.396;-122.212;2022-08-11T07:18:40;3.77;;;1.20;;
50531;SDS011;36483;37.396;-122.212;2022-08-11T07:21:29;3.38;;;1.13;;
50531;SDS011;36483;37.396;-122.212;2022-08-11T07:24:19;4.40;;;1.38;;
50531;SDS011;36483;37.396;-122.212;2022-08-11T07:27:09;3.72;;;1.50;;
50531;SDS011;36483;37.396;-122.212;2022-08-11T07:29:57;2.43;;;1.20;;
50531;SDS011;36483;37.396;-122.212;2022-08-11T07:32:29;3.97;;;1.20;;
50531;SDS011;36483;37.396;-122.212;2022-08-11T07:34:58;3.45;;;1.30;;
50531;SDS011;36483;37.396;-122.212;2022-08-11T07:37:34;2.50;;;1.63;;
50531;SDS011;36483;37.396;-122.212;2022-08-11T07:40:00;4.40;;;1.13;;
50531;SDS011;36483;37.396;-122.212;2022-08-11T07:42:31;4.32;;;1.30;;
50531;SDS011;36483;37.396;-122.212;2022-08-11T07:45:03;3.10;;;1.20;;
50531;SDS011;36483;37.396;-122.212;2022-08-11T07:47:48;4.22;;;1.40;;
50531;SDS011;36483;37.396;-122.212;2022-08-11T07:50:34;3.95;;;1.55;;
50531;SDS011;36483;37.396;-122.212;2022-08-11T07:53:18;3.95;;;1.35;;
50531;SDS011;36483;37.396;-122.212;2022-08-11T07:55:46;2.95;;;1.50;;
50531;SDS011;36483;37.396;-122.212;2022-08-11T07:58:14;2.85;;;1.40;;
50531;SDS011;36483;37.396;-122.212;2022-08-11T08:00:59;2.58;;;1.27;;
50531;SDS011;36483;37.396;-122.212;2022-08-11T08:03:44;3.97;;;1.33;;
50531;SDS011;36483;37.396;-122.212;2022-08-11T08:06:30;5.03;;;1.30;;
50531;SDS011;36483;37.396;-122.212;2022-08-11T08:09:17;4.80;;;1.33;;
50531;SDS011;36483;37.396;-122.212;2022-08-11T08:12:03;2.45;;;1.25;;
50531;SDS011;36483;37.396;-122.212;2022-08-11T08:14:49;3.97;;;1.40;;
50531;SDS011;36483;37.396;-122.212;2022-08-11T08:17:34;2.05;;;1.20;;
50531;SDS011;36483;37.396;-122.212;2022-08-11T08:20:29;3.13;;;1.30;;
50531;SDS011;36483;37.396;-122.212;2022-08-11T08:23:16;2.40;;;1.25;;
50531;SDS011;36483;37.396;-122.212;2022-08-11T08:25:57;4.32;;;1.30;;
50531;SDS011;36483;37.396;-122.212;2022-08-11T08:28:28;3.97;;;1.30;;
50531;SDS011;36483;37.396;-122.212;2022-08-11T08:30:55;2.90;;;1.20;;
50531;SDS011;36483;37.396;-122.212;2022-08-11T08:33:28;5.80;;;1.40;;
50531;SDS011;36483;37.396;-122.212;2022-08-11T08:35:56;2.78;;;1.50;;
50531;SDS011;36483;37.396;-122.212;2022-08-11T08:39:08;1.63;;;1.10;;
50531;SDS011;36483;37.396;-122.212;2022-08-11T08:41:28;2.90;;;1.38;;
50531;SDS011;36483;37.396;-122.212;2022-08-11T08:43:57;3.75;;;1.05;;
50531;SDS011;36483;37.396;-122.212;2022-08-11T08:46:29;3.58;;;1.35;;
50531;SDS011;36483;37.396;-122.212;2022-08-11T08:49:02;2.85;;;1.17;;
50531;SDS011;36483;37.396;-122.212;2022-08-11T08:51:29;3.13;;;1.25;;
50531;SDS011;36483;37.396;-122.212;2022-08-11T08:54:05;4.70;;;1.15;;
50531;SDS011;36483;37.396;-122.212;2022-08-11T08:56:34;4.28;;;1.67;;
50531;SDS011;36483;37.396;-122.212;2022-08-11T08:59:02;3.53;;;1.20;;
50531;SDS011;36483;37.396;-122.212;2022-08-11T09:01:29;3.40;;;1.40;;
50531;SDS011;36483;37.396;-122.212;2022-08-11T09:03:58;6.38;;;1.42;;
50531;SDS011;36483;37.396;-122.212;2022-08-11T09:06:24;2.70;;;1.10;;
50531;SDS011;36483;37.396;-122.212;2022-08-11T09:08:51;3.45;;;1.23;;
50531;SDS011;36483;37.396;-122.212;2022-08-11T09:11:18;4.65;;;1.17;;
50531;SDS011;36483;37.396;-122.212;2022-08-11T09:14:06;3.17;;;1.20;;
50531;SDS011;36483;37.396;-122.212;2022-08-11T09:16:32;3.10;;;1.20;;
50531;SDS011;36483;37.396;-122.212;2022-08-11T09:18:59;3.35;;;1.00;;
50531;SDS011;36483;37.396;-122.212;2022-08-11T09:21:26;4.47;;;1.20;;
50531;SDS011;36483;37.396;-122.212;2022-08-11T09:23:52;4.35;;;1.02;;
50531;SDS011;36483;37.396;-122.212;2022-08-11T09:26:37;2.85;;;1.00;;
50531;SDS011;36483;37.396;-122.212;2022-08-11T09:29:22;1.33;;;1.00;;
50531;SDS011;36483;37.396;-122.212;2022-08-11T09:31:48;3.97;;;1.35;;
50531;SDS011;36483;37.396;-122.212;2022-08-11T09:34:14;2.13;;;0.88;;
50531;SDS011;36483;37.396;-122.212;2022-08-11T09:36:42;2.80;;;1.23;;
50531;SDS011;36483;37.396;-122.212;2022-08-11T09:39:30;2.33;;;1.10;;
50531;SDS011;36483;37.396;-122.212;2022-08-11T09:42:16;2.72;;;1.30;;
50531;SDS011;36483;37.396;-122.212;2022-08-11T09:44:45;3.03;;;1.20;;
50531;SDS011;36483;37.396;-122.212;2022-08-11T09:47:24;4.43;;;1.10;;
50531;SDS011;36483;37.396;-122.212;2022-08-11T09:49:54;2.75;;;1.13;;
50531;SDS011;36483;37.396;-122.212;2022-08-11T09:54:49;3.22;;;1.20;;
50531;SDS011;36483;37.396;-122.212;2022-08-11T09:57:17;1.77;;;1.00;;
50531;SDS011;36483;37.396;-122.212;2022-08-11T10:00:04;2.40;;;1.20;;
50531;SDS011;36483;37.396;-122.212;2022-08-11T10:02:32;3.40;;;1.45;;
50531;SDS011;36483;37.396;-122.212;2022-08-11T10:04:58;3.33;;;1.20;;
50531;SDS011;36483;37.396;-122.212;2022-08-11T10:07:46;2.15;;;1.13;;
50531;SDS011;36483;37.396;-122.212;2022-08-11T10:10:17;2.28;;;1.00;;
50531;SDS011;36483;37.396;-122.212;2022-08-11T10:12:52;2.63;;;1.05;;
50531;SDS011;36483;37.396;-122.212;2022-08-11T10:15:24;2.95;;;1.02;;
50531;SDS011;36483;37.396;-122.212;2022-08-11T10:18:10;4.05;;;1.38;;
50531;SDS011;36483;37.396;-122.212;2022-08-11T10:20:58;2.67;;;1.30;;
50531;SDS011;36483;37.396;-122.212;2022-08-11T10:23:32;2.35;;;1.02;;
50531;SDS011;36483;37.396;-122.212;2022-08-11T10:26:18;5.10;;;1.30;;
50531;SDS011;36483;37.396;-122.212;2022-08-11T10:29:07;1.83;;;1.13;;
50531;SDS011;36483;37.396;-122.212;2022-08-11T10:31:53;1.70;;;1.00;;
50531;SDS011;36483;37.396;-122.212;2022-08-11T10:34:38;2.05;;;1.10;;
50531;SDS011;36483;37.396;-122.212;2022-08-11T10:37:05;2.60;;;1.10;;
50531;SDS011;36483;37.396;-122.212;2022-08-11T10:39:32;2.38;;;0.98;;
50531;SDS011;36483;37.396;-122.212;2022-08-11T10:41:59;3.97;;;1.20;;
50531;SDS011;36483;37.396;-122.212;2022-08-11T10:44:45;3.22;;;1.30;;
50531;SDS011;36483;37.396;-122.212;2022-08-11T10:47:15;2.47;;;1.10;;
50531;SDS011;36483;37.396;-122.212;2022-08-11T10:50:07;2.03;;;1.23;;
50531;SDS011;36483;37.396;-122.212;2022-08-11T10:55:36;2.45;;;0.95;;
50531;SDS011;36483;37.396;-122.212;2022-08-11T10:58:22;2.65;;;1.17;;
50531;SDS011;36483;37.396;-122.212;2022-08-11T11:01:07;1.58;;;0.98;;
50531;SDS011;36483;37.396;-122.212;2022-08-11T11:03:34;2.20;;;1.10;;
50531;SDS011;36483;37.396;-122.212;2022-08-11T11:06:07;2.63;;;1.20;;
50531;SDS011;36483;37.396;-122.212;2022-08-11T11:08:52;2.88;;;1.23;;
50531;SDS011;36483;37.396;-122.212;2022-08-11T11:11:24;5.22;;;1.30;;
50531;SDS011;36483;37.396;-122.212;2022-08-11T11:14:11;3.40;;;1.20;;
50531;SDS011;36483;37.396;-122.212;2022-08-11T11:17:00;1.60;;;1.08;;
50531;SDS011;36483;37.396;-122.212;2022-08-11T11:19:40;3.88;;;1.63;;
50531;SDS011;36483;37.396;-122.212;2022-08-11T11:22:07;8.48;;;1.70;;
50531;SDS011;36483;37.396;-122.212;2022-08-11T11:25:07;3.17;;;1.38;;
50531;SDS011;36483;37.396;-122.212;2022-08-11T11:27:37;2.10;;;0.97;;
50531;SDS011;36483;37.396;-122.212;2022-08-11T11:30:35;2.80;;;1.20;;
50531;SDS011;36483;37.396;-122.212;2022-08-11T11:33:12;3.92;;;1.17;;
50531;SDS011;36483;37.396;-122.212;2022-08-11T11:38:24;2.72;;;1.02;;
50531;SDS011;36483;37.396;-122.212;2022-08-11T11:40:51;2.13;;;1.15;;
50531;SDS011;36483;37.396;-122.212;2022-08-11T11:43:37;2.83;;;1.27;;
50531;SDS011;36483;37.396;-122.212;2022-08-11T11:46:03;4.22;;;1.20;;
50531;SDS011;36483;37.396;-122.212;2022-08-11T11:48:31;3.08;;;1.20;;
50531;SDS011;36483;37.396;-122.212;2022-08-11T11:50:59;3.08;;;1.10;;
50531;SDS011;36483;37.396;-122.212;2022-08-11T11:53:25;2.65;;;1.00;;
50531;SDS011;36483;37.396;-122.212;2022-08-11T11:55:53;3.72;;;1.30;;
50531;SDS011;36483;37.396;-122.212;2022-08-11T11:58:19;3.10;;;1.20;;
50531;SDS011;36483;37.396;-122.212;2022-08-11T12:01:03;4.53;;;1.33;;
50531;SDS011;36483;37.396;-122.212;2022-08-11T12:03:45;3.92;;;1.27;;
50531;SDS011;36483;37.396;-122.212;2022-08-11T12:06:13;2.03;;;1.10;;
50531;SDS011;36483;37.396;-122.212;2022-08-11T12:08:39;3.38;;;1.10;;
50531;SDS011;36483;37.396;-122.212;2022-08-11T12:11:08;3.13;;;1.30;;
50531;SDS011;36483;37.396;-122.212;2022-08-11T12:13:54;2.80;;;1.20;;
50531;SDS011;36483;37.396;-122.212;2022-08-11T12:16:23;3.25;;;1.20;;
50531;SDS011;36483;37.396;-122.212;2022-08-11T12:18:52;2.85;;;1.40;;
50531;SDS011;36483;37.396;-122.212;2022-08-11T12:21:22;3.67;;;1.20;;
50531;SDS011;36483;37.396;-122.212;2022-08-11T12:23:49;2.55;;;1.25;;
50531;SDS011;36483;37.396;-122.212;2022-08-11T12:26:34;2.00;;;1.25;;
50531;SDS011;36483;37.396;-122.212;2022-08-11T12:29:20;4.05;;;1.40;;
50531;SDS011;36483;37.396;-122.212;2022-08-11T12:31:51;2.05;;;0.95;;
50531;SDS011;36483;37.396;-122.212;2022-08-11T12:34:19;1.55;;;1.20;;
50531;SDS011;36483;37.396;-122.212;2022-08-11T12:37:06;2.33;;;1.33;;
50531;SDS011;36483;37.396;-122.212;2022-08-11T12:39:37;3.08;;;1.30;;
50531;SDS011;36483;37.396;-122.212;2022-08-11T12:42:25;3.38;;;1.20;;
50531;SDS011;36483;37.396;-122.212;2022-08-11T12:45:10;5.00;;;1.10;;
50531;SDS011;36483;37.396;-122.212;2022-08-11T12:48:04;1.90;;;0.93;;
50531;SDS011;36483;37.396;-122.212;2022-08-11T12:56:59;1.80;;;1.15;;
50531;SDS011;36483;37.396;-122.212;2022-08-11T12:59:46;2.08;;;1.02;;
50531;SDS011;36483;37.396;-122.212;2022-08-11T13:02:31;2.40;;;1.10;;
50531;SDS011;36483;37.396;-122.212;2022-08-11T13:05:16;2.30;;;0.98;;
50531;SDS011;36483;37.396;-122.212;2022-08-11T13:07:43;3.45;;;1.30;;
50531;SDS011;36483;37.396;-122.212;2022-08-11T13:10:11;2.45;;;1.20;;
50531;SDS011;36483;37.396;-122.212;2022-08-11T13:12:39;3.92;;;1.10;;
50531;SDS011;36483;37.396;-122.212;2022-08-11T13:15:19;2.20;;;1.20;;
50531;SDS011;36483;37.396;-122.212;2022-08-11T13:17:52;1.85;;;1.08;;
50531;SDS011;36483;37.396;-122.212;2022-08-11T13:20:20;2.88;;;1.20;;
50531;SDS011;36483;37.396;-122.212;2022-08-11T13:22:48;2.53;;;1.48;;
50531;SDS011;36483;37.396;-122.212;2022-08-11T13:25:15;4.03;;;1.23;;
50531;SDS011;36483;37.396;-122.212;2022-08-11T13:27:46;2.05;;;1.20;;
50531;SDS011;36483;37.396;-122.212;2022-08-11T13:30:13;2.63;;;1.08;;
50531;SDS011;36483;37.396;-122.212;2022-08-11T13:32:58;3.40;;;1.25;;
50531;SDS011;36483;37.396;-122.212;2022-08-11T13:35:25;3.65;;;1.30;;
50531;SDS011;36483;37.396;-122.212;2022-08-11T13:37:51;4.15;;;1.30;;
50531;SDS011;36483;37.396;-122.212;2022-08-11T13:40:20;2.28;;;1.13;;
50531;SDS011;36483;37.396;-122.212;2022-08-11T13:42:47;2.53;;;1.10;;
50531;SDS011;36483;37.396;-122.212;2022-08-11T13:45:14;2.80;;;1.38;;
50531;SDS011;36483;37.396;-122.212;2022-08-11T13:47:40;2.55;;;1.10;;
50531;SDS011;36483;37.396;-122.212;2022-08-11T13:50:07;3.38;;;1.27;;
50531;SDS011;36483;37.396;-122.212;2022-08-11T13:52:35;2.83;;;1.10;;
50531;SDS011;36483;37.396;-122.212;2022-08-11T13:55:04;1.70;;;1.10;;
50531;SDS011;36483;37.396;-122.212;2022-08-11T13:57:54;2.90;;;1.20;;
50531;SDS011;36483;37.396;-122.212;2022-08-11T14:00:21;2.92;;;1.60;;
50531;SDS011;36483;37.396;-122.212;2022-08-11T14:02:47;2.65;;;1.30;;
50531;SDS011;36483;37.396;-122.212;2022-08-11T14:05:18;3.35;;;1.30;;
50531;SDS011;36483;37.396;-122.212;2022-08-11T14:07:52;1.88;;;1.17;;
50531;SDS011;36483;37.396;-122.212;2022-08-11T14:10:25;1.98;;;1.20;;
50531;SDS011;36483;37.396;-122.212;2022-08-11T14:12:58;1.75;;;0.98;;
50531;SDS011;36483;37.396;-122.212;2022-08-11T14:15:44;1.63;;;1.30;;
50531;SDS011;36483;37.396;-122.212;2022-08-11T14:20:41;1.27;;;0.90;;
50531;SDS011;36483;37.396;-122.212;2022-08-11T14:23:27;2.33;;;1.10;;
50531;SDS011;36483;37.396;-122.212;2022-08-11T14:26:03;2.75;;;1.27;;
50531;SDS011;36483;37.396;-122.212;2022-08-11T14:28:58;4.05;;;1.20;;
50531;SDS011;36483;37.396;-122.212;2022-08-11T14:31:27;2.55;;;1.05;;
50531;SDS011;36483;37.396;-122.212;2022-08-11T14:33:55;2.25;;;1.02;;
50531;SDS011;36483;37.396;-122.212;2022-08-11T14:36:25;3.90;;;1.30;;
50531;SDS011;36483;37.396;-122.212;2022-08-11T14:38:52;2.45;;;1.20;;
50531;SDS011;36483;37.396;-122.212;2022-08-11T14:41:19;2.08;;;1.10;;
50531;SDS011;36483;37.396;-122.212;2022-08-11T14:44:04;2.03;;;1.17;;
50531;SDS011;36483;37.396;-122.212;2022-08-11T14:46:49;1.48;;;0.80;;
50531;SDS011;36483;37.396;-122.212;2022-08-11T14:49:32;3.80;;;1.50;;
50531;SDS011;36483;37.396;-122.212;2022-08-11T14:52:00;3.92;;;1.27;;
50531;SDS011;36483;37.396;-122.212;2022-08-11T14:54:48;4.10;;;1.10;;
50531;SDS011;36483;37.396;-122.212;2022-08-11T14:57:35;3.13;;;1.30;;
50531;SDS011;36483;37.396;-122.212;2022-08-11T15:00:03;4.50;;;1.40;;
50531;SDS011;36483;37.396;-122.212;2022-08-11T15:02:32;3.90;;;1.20;;
50531;SDS011;36483;37.396;-122.212;2022-08-11T15:05:18;3.28;;;1.48;;
50531;SDS011;36483;37.396;-122.212;2022-08-11T15:07:45;2.42;;;1.30;;
50531;SDS011;36483;37.396;-122.212;2022-08-11T15:10:11;4.25;;;1.40;;
50531;SDS011;36483;37.396;-122.212;2022-08-11T15:12:38;2.50;;;1.45;;
50531;SDS011;36483;37.396;-122.212;2022-08-11T15:15:08;4.20;;;1.65;;
50531;SDS011;36483;37.396;-122.212;2022-08-11T15:17:53;3.30;;;1.55;;
50531;SDS011;36483;37.396;-122.212;2022-08-11T15:20:21;4.47;;;1.70;;
50531;SDS011;36483;37.396;-122.212;2022-08-11T15:23:06;4.78;;;1.73;;
50531;SDS011;36483;37.396;-122.212;2022-08-11T15:26:12;3.03;;;1.50;;
50531;SDS011;36483;37.396;-122.212;2022-08-11T15:28:45;4.75;;;1.75;;
50531;SDS011;36483;37.396;-122.212;2022-08-11T15:31:31;6.13;;;2.08;;
50531;SDS011;36483;37.396;-122.212;2022-08-11T15:34:07;4.35;;;1.95;;
50531;SDS011;36483;37.396;-122.212;2022-08-11T15:36:57;3.58;;;2.10;;
50531;SDS011;36483;37.396;-122.212;2022-08-11T15:45:38;5.70;;;2.03;;
50531;SDS011;36483;37.396;-122.212;2022-08-11T15:48:38;5.00;;;2.00;;
50531;SDS011;36483;37.396;-122.212;2022-08-11T15:51:27;5.38;;;2.45;;
50531;SDS011;36483;37.396;-122.212;2022-08-11T15:53:58;5.20;;;2.10;;
50531;SDS011;36483;37.396;-122.212;2022-08-11T15:56:29;4.10;;;2.35;;
50531;SDS011;36483;37.396;-122.212;2022-08-11T15:58:57;4.28;;;2.20;;
50531;SDS011;36483;37.396;-122.212;2022-08-11T16:01:44;5.75;;;2.50;;
50531;SDS011;36483;37.396;-122.212;2022-08-11T16:04:30;5.38;;;2.50;;
50531;SDS011;36483;37.396;-122.212;2022-08-11T16:07:01;4.75;;;2.15;;
50531;SDS011;36483;37.396;-122.212;2022-08-11T16:09:56;4.10;;;1.90;;
50531;SDS011;36483;37.396;-122.212;2022-08-11T16:12:52;4.05;;;1.63;;
50531;SDS011;36483;37.396;-122.212;2022-08-11T16:15:33;4.78;;;2.10;;
50531;SDS011;36483;37.396;-122.212;2022-08-11T16:18:21;4.57;;;1.98;;
50531;SDS011;36483;37.396;-122.212;2022-08-11T16:21:15;6.35;;;1.90;;
50531;SDS011;36483;37.396;-122.212;2022-08-11T16:23:43;5.95;;;1.70;;
50531;SDS011;36483;37.396;-122.212;2022-08-11T16:26:12;5.05;;;1.80;;
50531;SDS011;36483;37.396;-122.212;2022-08-11T16:28:42;4.70;;;1.95;;
50531;SDS011;36483;37.396;-122.212;2022-08-11T16:31:09;2.45;;;1.45;;
50531;SDS011;36483;37.396;-122.212;2022-08-11T16:33:37;5.00;;;2.20;;
50531;SDS011;36483;37.396;-122.212;2022-08-11T16:36:06;4.57;;;1.60;;
50531;SDS011;36483;37.396;-122.212;2022-08-11T16:38:53;5.00;;;1.77;;
50531;SDS011;36483;37.396;-122.212;2022-08-11T16:41:20;3.90;;;1.90;;
50531;SDS011;36483;37.396;-122.212;2022-08-11T16:44:08;3.80;;;1.70;;
50531;SDS011;36483;37.396;-122.212;2022-08-11T16:46:53;4.72;;;1.90;;
50531;SDS011;36483;37.396;-122.212;2022-08-11T16:49:31;5.20;;;1.90;;
50531;SDS011;36483;37.396;-122.212;2022-08-11T16:52:03;2.90;;;1.58;;
50531;SDS011;36483;37.396;-122.212;2022-08-11T16:54:36;5.25;;;1.85;;
50531;SDS011;36483;37.396;-122.212;2022-08-11T16:57:04;4.65;;;1.92;;
50531;SDS011;36483;37.396;-122.212;2022-08-11T16:59:50;5.85;;;1.75;;
50531;SDS011;36483;37.396;-122.212;2022-08-11T17:02:19;3.90;;;1.98;;
50531;SDS011;36483;37.396;-122.212;2022-08-11T17:05:10;3.15;;;1.70;;
50531;SDS011;36483;37.396;-122.212;2022-08-11T17:10:44;3.72;;;1.63;;
50531;SDS011;36483;37.396;-122.212;2022-08-11T17:13:34;4.93;;;1.60;;
50531;SDS011;36483;37.396;-122.212;2022-08-11T17:16:31;7.07;;;1.75;;
50531;SDS011;36483;37.396;-122.212;2022-08-11T17:19:05;3.35;;;1.50;;
50531;SDS011;36483;37.396;-122.212;2022-08-11T17:21:36;4.15;;;1.67;;
50531;SDS011;36483;37.396;-122.212;2022-08-11T17:24:25;3.00;;;1.80;;
50531;SDS011;36483;37.396;-122.212;2022-08-11T17:26:52;2.80;;;1.50;;
50531;SDS011;36483;37.396;-122.212;2022-08-11T17:29:28;4.45;;;1.73;;
50531;SDS011;36483;37.396;-122.212;2022-08-11T17:31:55;5.90;;;1.80;;
50531;SDS011;36483;37.396;-122.212;2022-08-11T17:34:43;4.15;;;1.88;;
50531;SDS011;36483;37.396;-122.212;2022-08-11T17:37:40;5.53;;;1.60;;
50531;SDS011;36483;37.396;-122.212;2022-08-11T17:40:08;2.55;;;1.42;;
50531;SDS011;36483;37.396;-122.212;2022-08-11T17:42:36;3.25;;;1.85;;
50531;SDS011;36483;37.396;-122.212;2022-08-11T17:45:21;2.80;;;1.63;;
50531;SDS011;36483;37.396;-122.212;2022-08-11T17:48:06;3.40;;;1.60;;
50531;SDS011;36483;37.396;-122.212;2022-08-11T17:50:56;2.55;;;1.70;;
50531;SDS011;36483;37.396;-122.212;2022-08-11T17:53:28;3.92;;;1.70;;
50531;SDS011;36483;37.396;-122.212;2022-08-11T17:56:36;2.80;;;1.38;;
50531;SDS011;36483;37.396;-122.212;2022-08-11T17:59:21;2.92;;;1.30;;
50531;SDS011;36483;37.396;-122.212;2022-08-11T18:02:07;3.17;;;1.40;;
50531;SDS011;36483;37.396;-122.212;2022-08-11T18:04:51;4.22;;;1.40;;
50531;SDS011;36483;37.396;-122.212;2022-08-11T18:07:19;3.75;;;1.20;;
50531;SDS011;36483;37.396;-122.212;2022-08-11T18:10:05;3.28;;;1.52;;
50531;SDS011;36483;37.396;-122.212;2022-08-11T18:12:51;5.93;;;1.50;;
50531;SDS011;36483;37.396;-122.212;2022-08-11T18:15:37;4.82;;;1.20;;
50531;SDS011;36483;37.396;-122.212;2022-08-11T18:18:23;2.83;;;1.30;;
50531;SDS011;36483;37.396;-122.212;2022-08-11T18:21:08;3.30;;;1.73;;
50531;SDS011;36483;37.396;-122.212;2022-08-11T18:23:54;6.25;;;1.73;;
50531;SDS011;36483;37.396;-122.212;2022-08-11T18:26:40;3.22;;;1.30;;
50531;SDS011;36483;37.396;-122.212;2022-08-11T18:29:28;2.85;;;1.50;;
50531;SDS011;36483;37.396;-122.212;2022-08-11T18:32:14;5.07;;;1.70;;
50531;SDS011;36483;37.396;-122.212;2022-08-11T18:34:59;3.42;;;1.50;;
50531;SDS011;36483;37.396;-122.212;2022-08-11T18:37:46;5.15;;;1.60;;
50531;SDS011;36483;37.396;-122.212;2022-08-11T18:40:31;6.13;;;1.45;;
50531;SDS011;36483;37.396;-122.212;2022-08-11T18:43:18;3.88;;;1.20;;
50531;SDS011;36483;37.396;-122.212;2022-08-11T18:46:05;5.00;;;1.35;;
50531;SDS011;36483;37.396;-122.212;2022-08-11T18:48:51;3.53;;;1.20;;
50531;SDS011;36483;37.396;-122.212;2022-08-11T18:51:38;4.25;;;1.50;;
50531;SDS011;36483;37.396;-122.212;2022-08-11T18:54:24;7.30;;;1.30;;
50531;SDS011;36483;37.396;-122.212;2022-08-11T18:57:09;6.57;;;1.55;;
50531;SDS011;36483;37.396;-122.212;2022-08-11T18:59:54;3.75;;;1.38;;
50531;SDS011;36483;37.396;-122.212;2022-08-11T19:02:42;4.10;;;1.10;;
50531;SDS011;36483;37.396;-122.212;2022-08-11T19:05:29;7.05;;;1.58;;
50531;SDS011;36483;37.396;-122.212;2022-08-11T19:08:15;3.22;;;1.20;;